sensor_id;sensor_type;location;lat;lon;timestamp;P1;durP1;ratioP1;P2;durP2;ratioP2
22421;SDS011;11378;51.642;7.668;2022-11-14T21:27:58;4.68;;;3.00;;
22421;SDS011;11378;51.642;7.668;2022-11-14T21:30:43;4.45;;;3.30;;
22421;SDS011;11378;51.642;7.668;2022-11-14T21:33:28;3.95;;;3.28;;
22421;SDS011;11378;51.642;7.668;2022-11-14T21:36:14;4.55;;;3.50;;
22421;SDS011;11378;51.642;7.668;2022-11-14T21:38:59;6.85;;;3.53;;
22421;SDS011;11378;51.642;7.668;2022-11-14T21:41:44;5.78;;;3.33;;
22421;SDS011;11378;51.642;7.668;2022-11-14T21:44:31;5.88;;;2.90;;
22421;SDS011;11378;51.642;7.668;2022-11-14T21:47:16;3.83;;;3.03;;
22421;SDS011;11378;51.642;7.668;2022-11-14T21:50:01;3.85;;;2.92;;
22421;SDS011;11378;51.642;7.668;2022-11-14T21:52:45;4.32;;;3.17;;
22421;SDS011;11378;51.642;7.668;2022-11-14T21:55:32;4.30;;;3.30;;
22421;SDS011;11378;51.642;7.668;2022-11-14T21:58:17;3.65;;;2.85;;
22421;SDS011;11378;51.642;7.668;2022-11-14T22:01:02;6.53;;;3.30;;
22421;SDS011;11378;51.642;7.668;2022-11-14T22:03:47;3.60;;;2.90;;
22421;SDS011;11378;51.642;7.668;2022-11-14T22:06:51;5.55;;;3.30;;
22421;SDS011;11378;51.642;7.668;2022-11-14T22:09:36;4.82;;;2.70;;
22421;SDS011;11378;51.642;7.668;2022-11-14T22:12:21;3.30;;;2.60;;
22421;SDS011;11378;51.642;7.668;2022-11-14T22:15:06;3.25;;;2.83;;
22421;SDS011;11378;51.642;7.668;2022-11-14T22:17:52;3.47;;;3.10;;
22421;SDS011;11378;51.642;7.668;2022-11-14T22:20:37;3.78;;;2.90;;
22421;SDS011;11378;51.642;7.668;2022-11-14T22:23:22;3.25;;;2.88;;
22421;SDS011;11378;51.642;7.668;2022-11-14T22:26:07;5.80;;;2.88;;
22421;SDS011;11378;51.642;7.668;2022-11-14T22:28:52;3.53;;;2.70;;
22421;SDS011;11378;51.642;7.668;2022-11-14T22:31:37;3.42;;;2.75;;
22421;SDS011;11378;51.642;7.668;2022-11-14T22:34:22;3.45;;;2.40;;
22421;SDS011;11378;51.642;7.668;2022-11-14T22:37:07;3.97;;;2.60;;
22421;SDS011;11378;51.642;7.668;2022-11-14T22:39:52;2.90;;;2.50;;
22421;SDS011;11378;51.642;7.668;2022-11-14T22:42:36;2.55;;;2.25;;
22421;SDS011;11378;51.642;7.668;2022-11-14T22:45:21;3.95;;;2.30;;
22421;SDS011;11378;51.642;7.668;2022-11-14T22:48:06;4.47;;;2.92;;
22421;SDS011;11378;51.642;7.668;2022-11-14T22:53:45;3.53;;;2.80;;
22421;SDS011;11378;51.642;7.668;2022-11-14T22:56:30;4.85;;;2.90;;
22421;SDS011;11378;51.642;7.668;2022-11-14T22:59:15;3.95;;;2.80;;
22421;SDS011;11378;51.642;7.668;2022-11-14T23:02:00;3.63;;;2.40;;
22421;SDS011;11378;51.642;7.668;2022-11-14T23:04:45;4.40;;;2.80;;
22421;SDS011;11378;51.642;7.668;2022-11-14T23:07:30;2.85;;;2.42;;
22421;SDS011;11378;51.642;7.668;2022-11-14T23:10:15;3.38;;;2.47;;
22421;SDS011;11378;51.642;7.668;2022-11-14T23:12:59;3.45;;;2.38;;
22421;SDS011;11378;51.642;7.668;2022-11-14T23:15:44;3.75;;;2.53;;
22421;SDS011;11378;51.642;7.668;2022-11-14T23:18:30;3.33;;;2.53;;
22421;SDS011;11378;51.642;7.668;2022-11-14T23:21:16;2.90;;;2.47;;
22421;SDS011;11378;51.642;7.668;2022-11-14T23:24:03;4.30;;;2.88;;
22421;SDS011;11378;51.642;7.668;2022-11-14T23:26:47;2.50;;;2.30;;
22421;SDS011;11378;51.642;7.668;2022-11-14T23:29:32;2.78;;;2.50;;
22421;SDS011;11378;51.642;7.668;2022-11-14T23:32:17;3.40;;;2.33;;
22421;SDS011;11378;51.642;7.668;2022-11-14T23:35:02;3.45;;;2.45;;
22421;SDS011;11378;51.642;7.668;2022-11-14T23:37:47;2.75;;;2.30;;
22421;SDS011;11378;51.642;7.668;2022-11-14T23:40:32;3.45;;;2.75;;
22421;SDS011;11378;51.642;7.668;2022-11-14T23:43:17;3.40;;;2.60;;
22421;SDS011;11378;51.642;7.668;2022-11-14T23:46:01;3.80;;;2.58;;
22421;SDS011;11378;51.642;7.668;2022-11-14T23:48:46;3.17;;;2.33;;
22421;SDS011;11378;51.642;7.668;2022-11-14T23:51:31;2.80;;;2.40;;
22421;SDS011;11378;51.642;7.668;2022-11-14T23:54:16;2.92;;;2.35;;
22421;SDS011;11378;51.642;7.668;2022-11-14T23:57:01;2.90;;;2.50;;
22421;SDS011;11378;51.642;7.668;2022-11-14T23:59:46;3.17;;;2.47;;
